createdAt,value
2023-05-05T00:01:02.365Z,16.56
2023-05-05T00:03:30.168Z,16.57
2023-05-05T00:05:58.053Z,16.62
2023-05-05T00:08:25.833Z,16.64
2023-05-05T00:10:54.511Z,16.66
2023-05-05T00:13:22.303Z,16.67
2023-05-05T00:15:53.503Z,16.70
2023-05-05T00:18:21.456Z,16.72
2023-05-05T00:20:49.590Z,16.74
2023-05-05T00:23:19.205Z,16.75
2023-05-05T00:25:47.307Z,16.76
2023-05-05T00:28:14.876Z,16.77
2023-05-05T00:30:42.481Z,16.77
2023-05-05T00:33:11.154Z,16.76
2023-05-05T00:35:38.775Z,16.76
2023-05-05T00:38:07.250Z,16.76
2023-05-05T00:40:35.181Z,16.76
2023-05-05T00:43:02.921Z,16.75
2023-05-05T00:45:30.967Z,16.76
2023-05-05T00:48:00.855Z,16.74
2023-05-05T00:50:31.167Z,16.74
2023-05-05T00:53:06.489Z,16.73
2023-05-05T00:55:35.357Z,16.72
2023-05-05T00:58:04.408Z,16.73
2023-05-05T01:00:32.652Z,16.76
2023-05-05T01:03:00.599Z,16.77
2023-05-05T01:05:51.575Z,16.79
2023-05-05T01:08:41.114Z,16.80
2023-05-05T01:11:26.301Z,16.84
2023-05-05T01:14:32.089Z,16.87
2023-05-05T01:17:25.852Z,16.88
2023-05-05T01:20:10.525Z,16.88
2023-05-05T01:22:51.023Z,16.89
2023-05-05T01:26:05.600Z,16.90
2023-05-05T01:29:03.024Z,16.89
2023-05-05T01:31:52.278Z,16.89
2023-05-05T01:34:28.827Z,16.88
2023-05-05T01:37:19.040Z,16.89
2023-05-05T01:39:55.854Z,16.88
2023-05-05T01:42:26.739Z,16.86
2023-05-05T01:44:56.483Z,16.86
2023-05-05T01:47:25.517Z,16.84
2023-05-05T01:49:53.866Z,16.84
2023-05-05T01:52:24.237Z,16.83
2023-05-05T01:54:53.409Z,16.80
2023-05-05T01:57:26.476Z,16.77
2023-05-05T01:59:56.822Z,16.72
2023-05-05T02:02:28.972Z,16.68
2023-05-05T02:04:59.208Z,16.64
2023-05-05T02:07:28.239Z,16.59
2023-05-05T02:09:56.681Z,16.56
2023-05-05T02:12:25.467Z,16.53
2023-05-05T02:14:54.466Z,16.46
2023-05-05T02:17:24.058Z,16.41
2023-05-05T02:19:53.490Z,16.37
2023-05-05T02:22:21.089Z,16.34
2023-05-05T02:24:48.837Z,16.29
2023-05-05T02:27:21.609Z,16.24
2023-05-05T02:29:53.230Z,16.19
2023-05-05T02:32:32.452Z,16.15
2023-05-05T02:35:15.659Z,16.11
2023-05-05T02:37:56.765Z,16.01
2023-05-05T02:40:30.467Z,15.96
2023-05-05T02:43:04.753Z,15.92
2023-05-05T02:45:32.563Z,15.86
2023-05-05T02:48:05.151Z,15.83
2023-05-05T02:50:37.550Z,15.78
2023-05-05T02:53:27.124Z,15.74
2023-05-05T02:56:08.144Z,15.69
2023-05-05T02:58:53.118Z,15.63
2023-05-05T03:01:36.278Z,15.57
2023-05-05T03:04:14.674Z,15.51
2023-05-05T03:06:53.651Z,15.42
2023-05-05T03:09:39.806Z,15.35
2023-05-05T03:12:13.617Z,15.28
2023-05-05T03:15:00.746Z,15.20
2023-05-05T03:17:32.684Z,15.14
2023-05-05T03:20:03.405Z,15.08
2023-05-05T03:22:37.814Z,15.04
2023-05-05T03:25:08.080Z,14.97
2023-05-05T03:27:35.671Z,14.93
2023-05-05T03:30:03.825Z,14.88
2023-05-05T03:32:33.261Z,14.83
2023-05-05T03:35:01.019Z,14.79
2023-05-05T03:37:32.800Z,14.74
2023-05-05T03:40:00.739Z,14.69
2023-05-05T03:42:28.662Z,14.68
2023-05-05T03:44:57.169Z,14.63
2023-05-05T03:47:25.689Z,14.60
2023-05-05T03:49:54.602Z,14.54
2023-05-05T03:52:22.281Z,14.52
2023-05-05T03:54:50.001Z,14.48
2023-05-05T03:57:17.573Z,14.45
2023-05-05T03:59:45.106Z,14.39
2023-05-05T04:02:13.414Z,14.35
2023-05-05T04:04:41.231Z,14.29
2023-05-05T04:07:09.014Z,14.27
2023-05-05T04:09:37.300Z,14.24
2023-05-05T04:12:06.112Z,14.19
2023-05-05T04:14:34.012Z,14.15
2023-05-05T04:17:02.120Z,14.13
2023-05-05T04:19:33.775Z,14.10
2023-05-05T04:22:03.257Z,14.06
2023-05-05T04:24:31.323Z,14.05
2023-05-05T04:26:59.655Z,14.03
2023-05-05T04:29:27.982Z,14.01
2023-05-05T04:31:56.804Z,13.99
2023-05-05T04:34:24.847Z,13.98
2023-05-05T04:36:52.717Z,13.96
2023-05-05T04:39:21.624Z,13.95
2023-05-05T04:41:50.105Z,13.94
2023-05-05T04:44:17.736Z,13.94
2023-05-05T04:46:45.719Z,13.94
2023-05-05T04:49:13.245Z,13.94
2023-05-05T04:51:42.346Z,13.96
2023-05-05T04:54:09.982Z,13.95
2023-05-05T04:56:37.729Z,13.96
2023-05-05T04:59:05.333Z,13.96
2023-05-05T05:01:33.044Z,13.96
2023-05-05T05:04:00.835Z,13.96
2023-05-05T05:06:29.356Z,13.97
2023-05-05T05:08:57.092Z,13.98
2023-05-05T05:11:24.738Z,13.99
2023-05-05T05:13:53.101Z,14.00
2023-05-05T05:16:21.524Z,14.02
2023-05-05T05:18:49.365Z,14.04
2023-05-05T05:21:17.040Z,14.07
2023-05-05T05:23:44.847Z,14.09
2023-05-05T05:26:12.607Z,14.12
2023-05-05T05:28:41.603Z,14.14
2023-05-05T05:31:09.159Z,14.18
2023-05-05T05:33:36.856Z,14.21
2023-05-05T05:36:05.736Z,14.23
2023-05-05T05:38:33.499Z,14.27
2023-05-05T05:41:09.659Z,14.29
2023-05-05T05:43:38.561Z,14.31
2023-05-05T05:46:08.907Z,14.33
2023-05-05T05:48:38.229Z,14.36
2023-05-05T05:51:05.964Z,14.39
2023-05-05T05:53:37.441Z,14.42
2023-05-05T05:56:05.560Z,14.40
2023-05-05T05:58:33.161Z,14.43
2023-05-05T06:01:00.823Z,14.49
2023-05-05T06:03:29.838Z,14.56
2023-05-05T06:05:58.975Z,14.61
2023-05-05T06:08:26.976Z,14.66
2023-05-05T06:10:56.253Z,14.74
2023-05-05T06:13:24.391Z,14.81
2023-05-05T06:15:53.545Z,14.89
2023-05-05T06:18:21.267Z,14.99
2023-05-05T06:20:50.908Z,15.10
2023-05-05T06:23:19.782Z,15.18
2023-05-05T06:25:54.809Z,15.25
2023-05-05T06:28:22.648Z,15.37
2023-05-05T06:30:50.218Z,15.48
2023-05-05T06:33:17.768Z,15.62
2023-05-05T06:35:45.699Z,15.78
2023-05-05T06:38:13.292Z,15.94
2023-05-05T06:40:40.860Z,16.11
2023-05-05T06:43:08.432Z,16.26
2023-05-05T06:45:43.870Z,16.45
2023-05-05T06:48:12.391Z,16.68
2023-05-05T06:50:40.088Z,16.92
2023-05-05T06:53:12.132Z,17.12
2023-05-05T06:55:45.758Z,17.35
2023-05-05T06:58:13.393Z,17.54
2023-05-05T07:00:41.194Z,17.72
2023-05-05T07:03:08.965Z,17.88
2023-05-05T07:05:36.843Z,18.06
2023-05-05T07:08:04.544Z,18.20
2023-05-05T07:10:33.075Z,18.38
2023-05-05T07:13:01.046Z,18.56
2023-05-05T07:15:29.784Z,18.72
2023-05-05T07:17:57.943Z,18.83
2023-05-05T07:20:25.982Z,18.95
2023-05-05T07:22:53.554Z,19.06
2023-05-05T07:25:21.503Z,19.16
2023-05-05T07:27:49.122Z,19.25
2023-05-05T07:30:18.690Z,19.40
2023-05-05T07:32:47.095Z,19.52
2023-05-05T07:35:14.743Z,19.61
2023-05-05T07:37:42.467Z,19.72
2023-05-05T07:40:10.900Z,19.85
2023-05-05T07:42:38.972Z,19.98
2023-05-05T07:45:07.451Z,20.12
2023-05-05T07:47:35.077Z,20.27
2023-05-05T07:50:02.714Z,20.43
2023-05-05T07:52:44.258Z,20.54
2023-05-05T07:55:15.842Z,20.67
2023-05-05T07:57:43.577Z,20.76
2023-05-05T08:00:13.413Z,20.89
2023-05-05T08:02:41.465Z,21.06
2023-05-05T08:05:09.810Z,21.19
2023-05-05T08:07:41.184Z,21.32
2023-05-05T08:10:11.873Z,21.48
2023-05-05T08:12:40.496Z,21.67
2023-05-05T08:15:08.955Z,21.82
2023-05-05T08:17:52.025Z,21.91
2023-05-05T08:20:21.082Z,21.89
2023-05-05T08:22:49.680Z,21.99
2023-05-05T08:25:17.342Z,22.12
2023-05-05T08:27:44.973Z,22.18
2023-05-05T08:30:13.217Z,22.36
2023-05-05T08:32:40.895Z,22.41
2023-05-05T08:35:09.189Z,22.57
2023-05-05T08:37:37.033Z,22.76
2023-05-05T08:40:06.173Z,22.78
2023-05-05T08:42:38.678Z,22.71
2023-05-05T08:45:09.982Z,22.75
2023-05-05T08:47:39.600Z,22.76
2023-05-05T08:50:11.480Z,22.85
2023-05-05T08:52:44.331Z,22.96
2023-05-05T08:55:27.764Z,23.04
2023-05-05T08:57:58.036Z,23.07
2023-05-05T09:00:27.773Z,23.09
2023-05-05T09:03:01.363Z,23.13
2023-05-05T09:05:29.215Z,23.19
2023-05-05T09:07:56.941Z,23.33
2023-05-05T09:10:26.172Z,23.30
2023-05-05T09:12:54.249Z,23.19
2023-05-05T09:15:21.864Z,23.12
2023-05-05T09:17:49.477Z,23.04
2023-05-05T09:20:17.134Z,23.01
2023-05-05T09:22:47.651Z,22.96
2023-05-05T09:25:18.316Z,22.85
2023-05-05T09:27:49.223Z,22.76
2023-05-05T09:30:24.388Z,22.69
2023-05-05T09:32:54.699Z,22.66
2023-05-05T09:35:23.485Z,22.66
2023-05-05T09:37:51.056Z,22.67
2023-05-05T09:40:22.034Z,22.67
2023-05-05T09:43:01.866Z,22.66
2023-05-05T09:45:29.450Z,22.62
2023-05-05T09:48:00.163Z,22.59
2023-05-05T09:50:30.947Z,22.56
2023-05-05T09:53:02.111Z,22.58
2023-05-05T09:55:33.566Z,22.61
2023-05-05T09:58:23.662Z,22.63
2023-05-05T10:00:52.255Z,22.61
2023-05-05T10:03:20.850Z,22.59
2023-05-05T10:06:00.974Z,22.49
2023-05-05T10:08:33.485Z,22.38
2023-05-05T10:11:07.247Z,22.28
2023-05-05T10:13:37.929Z,22.24
2023-05-05T10:16:13.254Z,22.20
2023-05-05T10:18:46.522Z,22.21
2023-05-05T10:21:21.416Z,22.22
2023-05-05T10:24:00.351Z,22.19
2023-05-05T10:26:34.334Z,22.14
2023-05-05T10:29:07.958Z,22.07
2023-05-05T10:31:49.221Z,22.06
2023-05-05T10:34:30.080Z,22.03
2023-05-05T10:37:00.170Z,22.06
2023-05-05T10:39:29.014Z,22.10
2023-05-05T10:42:03.976Z,22.12
2023-05-05T10:44:33.185Z,22.11
2023-05-05T10:47:02.266Z,22.08
2023-05-05T10:49:48.924Z,22.02
2023-05-05T10:52:42.892Z,21.96
2023-05-05T10:55:21.362Z,21.93
2023-05-05T10:57:53.606Z,21.87
2023-05-05T11:00:39.616Z,21.84
2023-05-05T11:03:16.210Z,21.79
2023-05-05T11:06:05.795Z,21.74
2023-05-05T11:08:39.323Z,21.62
2023-05-05T11:11:07.671Z,21.53
2023-05-05T11:13:35.225Z,21.49
2023-05-05T11:16:03.216Z,21.43
2023-05-05T11:18:37.680Z,21.24
2023-05-05T11:21:17.245Z,20.90
2023-05-05T11:23:45.599Z,20.56
2023-05-05T11:26:14.977Z,20.24
2023-05-05T11:29:03.959Z,19.93
2023-05-05T11:31:33.470Z,19.62
2023-05-05T11:34:28.436Z,19.34
2023-05-05T11:37:03.290Z,18.97
2023-05-05T11:40:03.129Z,18.54
2023-05-05T11:42:30.928Z,18.16
2023-05-05T11:44:59.218Z,17.84
2023-05-05T11:47:29.486Z,17.41
2023-05-05T11:49:57.847Z,16.98
2023-05-05T11:52:27.210Z,16.64
2023-05-05T11:55:01.453Z,16.38
2023-05-05T11:57:30.450Z,16.10
2023-05-05T12:00:04.963Z,15.92
2023-05-05T12:02:56.910Z,15.82
2023-05-05T12:05:24.872Z,15.72
2023-05-05T12:07:57.926Z,15.64
2023-05-05T12:10:25.814Z,15.52
2023-05-05T12:12:56.457Z,15.44
2023-05-05T12:15:32.439Z,15.34
2023-05-05T12:18:02.412Z,15.25
2023-05-05T12:20:33.314Z,15.19
2023-05-05T12:23:03.128Z,15.16
2023-05-05T12:25:36.878Z,15.16
2023-05-05T12:28:09.007Z,15.16
2023-05-05T12:30:37.197Z,15.20
2023-05-05T12:33:08.225Z,15.28
2023-05-05T12:35:37.076Z,15.31
2023-05-05T12:38:04.754Z,15.35
2023-05-05T12:40:53.783Z,15.39
2023-05-05T12:43:30.483Z,15.39
2023-05-05T12:46:07.141Z,15.41
2023-05-05T12:48:38.066Z,15.40
2023-05-05T12:51:23.613Z,15.39
2023-05-05T12:54:11.523Z,15.39
2023-05-05T12:56:45.541Z,15.44
2023-05-05T12:59:33.365Z,15.51
2023-05-05T13:02:03.715Z,15.52
2023-05-05T13:04:32.827Z,15.51
2023-05-05T13:07:13.166Z,15.48
2023-05-05T13:09:41.544Z,15.46
2023-05-05T13:12:12.091Z,15.47
2023-05-05T13:14:41.493Z,15.48
2023-05-05T13:17:10.892Z,15.44
2023-05-05T13:19:42.558Z,15.39
2023-05-05T13:22:10.319Z,15.34
2023-05-05T13:24:50.943Z,15.29
2023-05-05T13:27:20.657Z,15.23
2023-05-05T13:29:48.492Z,15.20
2023-05-05T13:32:16.129Z,15.20
2023-05-05T13:34:44.155Z,15.20
2023-05-05T13:37:11.862Z,15.23
2023-05-05T13:39:39.435Z,15.29
2023-05-05T13:42:06.975Z,15.35
2023-05-05T13:44:35.378Z,15.39
2023-05-05T13:47:04.525Z,15.39
2023-05-05T13:49:32.114Z,15.35
2023-05-05T13:51:59.718Z,15.32
2023-05-05T13:54:28.119Z,15.28
2023-05-05T13:56:55.702Z,15.26
2023-05-05T13:59:23.303Z,15.25
2023-05-05T14:01:50.854Z,15.22
2023-05-05T14:04:27.881Z,15.17
2023-05-05T14:06:58.134Z,15.11
2023-05-05T14:09:26.891Z,15.06
2023-05-05T14:11:54.472Z,15.02
2023-05-05T14:14:22.024Z,14.99
2023-05-05T14:16:50.372Z,15.02
2023-05-05T14:19:18.187Z,15.07
2023-05-05T14:21:45.999Z,15.13
2023-05-05T14:24:13.544Z,15.20
2023-05-05T14:26:41.133Z,15.27
2023-05-05T14:29:08.821Z,15.33
2023-05-05T14:31:36.760Z,15.39
2023-05-05T14:34:04.365Z,15.46
2023-05-05T14:36:32.020Z,15.59
2023-05-05T14:38:59.649Z,15.84
2023-05-05T14:41:27.175Z,16.05
2023-05-05T14:43:54.752Z,16.14
2023-05-05T14:46:22.588Z,16.20
2023-05-05T14:48:50.366Z,16.20
2023-05-05T14:51:18.002Z,16.16
2023-05-05T14:53:45.785Z,16.09
2023-05-05T14:56:13.857Z,16.03
2023-05-05T14:58:41.730Z,16.00
2023-05-05T15:01:09.814Z,15.99
2023-05-05T15:03:37.581Z,16.00
2023-05-05T15:06:05.553Z,16.05
2023-05-05T15:08:33.190Z,16.09
2023-05-05T15:11:01.176Z,16.12
2023-05-05T15:13:29.717Z,16.10
2023-05-05T15:15:57.353Z,16.01
2023-05-05T15:18:25.055Z,15.93
2023-05-05T15:20:52.640Z,15.89
2023-05-05T15:23:20.199Z,15.83
2023-05-05T15:25:47.763Z,15.79
2023-05-05T15:28:15.467Z,15.75
2023-05-05T15:30:43.071Z,15.70
2023-05-05T15:33:10.699Z,15.67
2023-05-05T15:35:38.463Z,15.68
2023-05-05T15:38:06.268Z,15.73
2023-05-05T15:40:33.922Z,15.75
2023-05-05T15:43:01.593Z,15.80
2023-05-05T15:45:29.117Z,15.88
2023-05-05T15:47:56.745Z,15.97
2023-05-05T15:50:24.384Z,16.01
2023-05-05T15:52:52.019Z,16.11
2023-05-05T15:55:19.574Z,16.23
2023-05-05T15:57:47.114Z,16.37
2023-05-05T16:00:15.234Z,16.53
2023-05-05T16:02:42.865Z,16.67
2023-05-05T16:05:11.047Z,16.79
2023-05-05T16:07:39.454Z,16.87
2023-05-05T16:10:08.278Z,16.95
2023-05-05T16:12:35.841Z,17.05
2023-05-05T16:15:03.499Z,17.16
2023-05-05T16:17:31.235Z,17.20
2023-05-05T16:19:58.970Z,17.22
2023-05-05T16:22:26.773Z,17.23
2023-05-05T16:24:54.346Z,17.16
2023-05-05T16:27:22.340Z,17.13
2023-05-05T16:29:49.898Z,17.14
2023-05-05T16:32:17.428Z,17.19
2023-05-05T16:34:45.230Z,17.28
2023-05-05T16:37:13.291Z,17.40
2023-05-05T16:39:41.526Z,17.58
2023-05-05T16:42:09.084Z,17.69
2023-05-05T16:44:36.667Z,17.79
2023-05-05T16:47:04.469Z,17.80
2023-05-05T16:49:31.995Z,17.84
2023-05-05T16:51:59.587Z,17.93
2023-05-05T16:54:27.131Z,17.94
2023-05-05T16:56:55.122Z,17.86
2023-05-05T16:59:22.697Z,17.82
2023-05-05T17:01:50.380Z,17.81
2023-05-05T17:04:17.924Z,17.91
2023-05-05T17:06:45.986Z,18.03
2023-05-05T17:09:13.583Z,18.08
2023-05-05T17:11:41.102Z,18.12
2023-05-05T17:14:08.731Z,18.12
2023-05-05T17:16:36.905Z,18.12
2023-05-05T17:19:04.534Z,18.17
2023-05-05T17:21:32.821Z,18.22
2023-05-05T17:24:01.394Z,18.20
2023-05-05T17:26:30.724Z,18.13
2023-05-05T17:28:58.240Z,18.07
2023-05-05T17:31:26.010Z,18.05
2023-05-05T17:33:53.665Z,18.08
2023-05-05T17:36:21.214Z,18.09
2023-05-05T17:38:48.737Z,18.08
2023-05-05T17:41:16.641Z,18.02
2023-05-05T17:43:44.395Z,17.96
2023-05-05T17:46:12.052Z,17.91
2023-05-05T17:48:39.626Z,17.87
2023-05-05T17:51:07.219Z,17.83
2023-05-05T17:53:34.842Z,17.75
2023-05-05T17:56:02.566Z,17.67
2023-05-05T17:58:30.245Z,17.58
2023-05-05T18:00:57.826Z,17.49
2023-05-05T18:03:25.556Z,17.41
2023-05-05T18:05:53.121Z,17.36
2023-05-05T18:08:20.759Z,17.27
2023-05-05T18:10:48.335Z,17.22
2023-05-05T18:13:15.943Z,17.16
2023-05-05T18:15:43.616Z,17.14
2023-05-05T18:18:11.249Z,17.09
2023-05-05T18:20:38.816Z,17.02
2023-05-05T18:23:06.389Z,16.94
2023-05-05T18:25:33.985Z,16.89
2023-05-05T18:28:01.523Z,16.85
2023-05-05T18:30:29.169Z,16.84
2023-05-05T18:32:56.831Z,16.82
2023-05-05T18:35:24.529Z,16.79
2023-05-05T18:37:52.392Z,16.75
2023-05-05T18:40:19.929Z,16.70
2023-05-05T18:42:47.492Z,16.64
2023-05-05T18:45:15.349Z,16.57
2023-05-05T18:47:42.968Z,16.49
2023-05-05T18:50:10.773Z,16.41
2023-05-05T18:52:41.021Z,16.37
2023-05-05T18:55:09.036Z,16.31
2023-05-05T18:57:36.700Z,16.24
2023-05-05T19:00:04.882Z,16.18
2023-05-05T19:02:32.521Z,16.13
2023-05-05T19:05:00.201Z,16.07
2023-05-05T19:07:35.323Z,16.01
2023-05-05T19:10:05.055Z,15.92
2023-05-05T19:12:32.928Z,15.84
2023-05-05T19:15:01.289Z,15.77
2023-05-05T19:17:28.885Z,15.72
2023-05-05T19:19:56.478Z,15.64
2023-05-05T19:22:24.084Z,15.56
2023-05-05T19:24:51.672Z,15.48
2023-05-05T19:27:19.264Z,15.40
2023-05-05T19:29:51.986Z,15.34
2023-05-05T19:32:21.603Z,15.26
2023-05-05T19:34:49.299Z,15.19
2023-05-05T19:37:16.840Z,15.13
2023-05-05T19:39:45.673Z,15.07
2023-05-05T19:42:14.490Z,15.03
2023-05-05T19:44:42.417Z,14.97
2023-05-05T19:47:10.952Z,14.91
2023-05-05T19:49:38.873Z,14.83
2023-05-05T19:52:06.430Z,14.76
2023-05-05T19:54:34.049Z,14.71
2023-05-05T19:57:01.945Z,14.64
2023-05-05T19:59:29.580Z,14.57
2023-05-05T20:01:57.253Z,14.52
2023-05-05T20:04:25.456Z,14.45
2023-05-05T20:06:53.069Z,14.41
2023-05-05T20:09:20.589Z,14.34
2023-05-05T20:11:48.116Z,14.28
2023-05-05T20:14:15.776Z,14.23
2023-05-05T20:16:43.324Z,14.16
2023-05-05T20:19:10.929Z,14.11
2023-05-05T20:21:38.467Z,14.06
2023-05-05T20:24:07.421Z,14.01
2023-05-05T20:26:34.960Z,13.97
2023-05-05T20:29:03.005Z,13.91
2023-05-05T20:31:30.983Z,13.85
2023-05-05T20:33:58.507Z,13.79
2023-05-05T20:36:26.713Z,13.74
2023-05-05T20:38:54.393Z,13.68
2023-05-05T20:41:22.104Z,13.63
2023-05-05T20:43:49.746Z,13.59
2023-05-05T20:46:17.563Z,13.55
2023-05-05T20:48:45.173Z,13.50
2023-05-05T20:51:12.865Z,13.43
2023-05-05T20:53:40.636Z,13.40
2023-05-05T20:56:09.114Z,13.35
2023-05-05T20:58:36.943Z,13.32
2023-05-05T21:01:04.597Z,13.27
2023-05-05T21:03:32.228Z,13.24
2023-05-05T21:05:59.912Z,13.20
2023-05-05T21:08:29.099Z,13.17
2023-05-05T21:10:56.625Z,13.12
2023-05-05T21:13:24.449Z,13.08
2023-05-05T21:15:52.182Z,13.02
2023-05-05T21:18:19.762Z,12.96
2023-05-05T21:20:47.368Z,12.91
2023-05-05T21:23:14.977Z,12.85
2023-05-05T21:25:42.517Z,12.80
2023-05-05T21:28:10.075Z,12.77
2023-05-05T21:30:38.105Z,12.74
2023-05-05T21:33:05.771Z,12.70
2023-05-05T21:35:33.397Z,12.65
2023-05-05T21:38:01.402Z,12.61
2023-05-05T21:40:29.053Z,12.59
2023-05-05T21:42:56.578Z,12.55
2023-05-05T21:45:24.065Z,12.53
2023-05-05T21:47:51.650Z,12.53
2023-05-05T21:50:19.674Z,12.52
2023-05-05T21:52:47.361Z,12.47
2023-05-05T21:55:15.083Z,12.45
2023-05-05T21:57:42.610Z,12.43
2023-05-05T22:00:16.519Z,12.41
2023-05-05T22:02:45.424Z,12.39
2023-05-05T22:05:13.398Z,12.39
2023-05-05T22:07:41.012Z,12.38
2023-05-05T22:10:09.341Z,12.39
2023-05-05T22:12:37.150Z,12.40
2023-05-05T22:15:05.636Z,12.39
2023-05-05T22:17:33.250Z,12.40
2023-05-05T22:20:00.809Z,12.39
2023-05-05T22:22:28.351Z,12.39
2023-05-05T22:24:56.119Z,12.40
2023-05-05T22:27:23.843Z,12.42
2023-05-05T22:29:51.499Z,12.41
2023-05-05T22:32:20.452Z,12.43
2023-05-05T22:34:48.393Z,12.43
2023-05-05T22:37:16.200Z,12.43
2023-05-05T22:39:43.941Z,12.44
2023-05-05T22:42:11.790Z,12.45
2023-05-05T22:44:39.429Z,12.47
2023-05-05T22:47:07.099Z,12.48
2023-05-05T22:49:35.122Z,12.48
2023-05-05T22:52:02.745Z,12.50
2023-05-05T22:54:30.304Z,12.50
2023-05-05T22:56:57.887Z,12.50
2023-05-05T22:59:25.549Z,12.50
2023-05-05T23:01:53.104Z,12.48
2023-05-05T23:04:20.738Z,12.49
2023-05-05T23:06:48.404Z,12.48
2023-05-05T23:09:15.934Z,12.47
2023-05-05T23:11:43.467Z,12.41
2023-05-05T23:14:11.105Z,12.31
2023-05-05T23:16:38.677Z,12.25
2023-05-05T23:19:06.227Z,12.20
2023-05-05T23:21:38.936Z,12.16
2023-05-05T23:24:13.234Z,12.10
2023-05-05T23:26:40.891Z,12.07
2023-05-05T23:29:08.413Z,12.07
2023-05-05T23:31:35.940Z,12.08
2023-05-05T23:34:03.469Z,12.10
2023-05-05T23:36:31.167Z,12.11
2023-05-05T23:38:58.878Z,12.09
2023-05-05T23:41:26.389Z,12.07
2023-05-05T23:43:54.046Z,12.08
2023-05-05T23:46:21.693Z,12.07
2023-05-05T23:48:50.402Z,12.06
2023-05-05T23:51:18.030Z,12.07
2023-05-05T23:53:45.650Z,12.08
2023-05-05T23:56:13.272Z,12.07
2023-05-05T23:58:40.799Z,12.09
